Meteoliendo - El tiempo en Liendo - Informes METAR de Aeropuertos cercanos

Informes METAR de Aeropuertos cercanos

 

LEXJ - Santander
Actualización: 21/08/2017 19:30
Despejado
Despejado
 Viento del NNE
Viento: NNE 6 km/h
Temperatura: 27°C
Heat Index: 28°C
Rocío: 18°C
Humedad: 58%
Barómetro: 1012 hPa
Resumen: Despejado
Visibility: greater than 10 km
2017/08/21 17:30 LEXJ 211730Z 03003KT 350V070 CAVOK 27/18 Q1012
LEAS - Asturias/Aviles
Actualización: 21/08/2017 19:30
Few Clouds
Few Clouds
 Viento del E
Viento: E 11 km/h
Temperatura: 26°C
Rocío: 18°C
Humedad: 61%
Barómetro: 1012 hPa
Clouds: Few Clouds
Visibility: 10 km
Cloud details: Few Clouds 1067 m
2017/08/21 17:30 LEAS 211730Z 09006KT 9999 FEW035 26/18 Q1012 NOSIG
LEBB - Bilbao
Actualización: 21/08/2017 19:30
Despejado
Despejado
 Viento del SE
Viento: SE 11 km/h
Temperatura: 33°C
Rocío: 17°C
Humedad: 38%
Barómetro: 1013 hPa
Resumen: Despejado
Visibility: greater than 10 km
2017/08/21 17:30 LEBB 211730Z 13006KT CAVOK 33/17 Q1013 NOSIG
 
LEBG - Burgos/Villafría
Actualización: 21/08/2017 19:30
Despejado
Despejado
 Viento del ENE
Viento: ENE 24 km/h
Temperatura: 31°C
Rocío: 4°C
Humedad: 18%
Barómetro: 1018 hPa
Resumen: Despejado
Visibility: greater than 10 km
2017/08/21 17:30 LEBG 211730Z 06013KT CAVOK 31/04 Q1018
LELO - Logroño
Actualización: 21/08/2017 19:00
Despejado
Despejado
 Viento del E
Viento: E 19 km/h
Temperatura: 34°C
Rocío: 7°C
Humedad: 19%
Barómetro: 1015 hPa
Resumen: Despejado
Visibility: greater than 10 km
2017/08/21 17:00 LELO 211700Z 08010KT 030V120 CAVOK 34/07 Q1015
LEPP - Pamplona
Actualización: 21/08/2017 19:30
Despejado
Despejado
 Viento del SSO
Viento: SSO 13 km/h
Temperatura: 35°C
Rocío: 6°C
Humedad: 16%
Barómetro: 1016 hPa
Resumen: Despejado
Visibility: greater than 10 km
2017/08/21 17:30 LEPP 211730Z 21007KT 160V260 CAVOK 35/06 Q1016
 
LESO - San Sebastián
Actualización: 21/08/2017 19:30
Despejado
Despejado
 Viento del E
Viento: E 17 km/h
Temperatura: 32°C
Rocío: 16°C
Humedad: 38%
Barómetro: 1014 hPa
Resumen: Despejado
Visibility: greater than 10 km
2017/08/21 17:30 LESO 211730Z 08009KT CAVOK 32/16 Q1014
LEST - Santiago de Compostela
Actualización: 21/08/2017 19:30
Few Clouds
Few Clouds
 Viento del O
Viento: O 9 km/h
Temperatura: 30°C
Rocío: 10°C
Humedad: 29%
Barómetro: 1015 hPa
Clouds: Few Clouds
Visibility: 10 km
Cloud details: Few Clouds 914 m
2017/08/21 17:30 LEST 211730Z 28005KT 220V330 9999 FEW030 30/10 Q1015 NOSIG
LEVT - Vitoria
Actualización: 21/08/2017 19:30
Despejado
Despejado
 Viento del ESE
Viento: ESE 11 km/h
Temperatura: 35°C
Rocío: 7°C
Humedad: 18%
Barómetro: 1016 hPa
Resumen: Despejado
Visibility: greater than 10 km
2017/08/21 17:30 LEVT 211730Z 11006KT 080V160 CAVOK 35/07 Q1016